Time;durP1;ratioP1;P1;durP2;ratioP2;P2;SDS_P1;SDS_P2;PMS_P1;PMS_P2;Temp;Humidity;BMP_temperature;BMP_pressure;BME280_temperature;BME280_humidity;BME280_pressure;Samples;Min_cycle;Max_cycle;Signal;HPM_P1;HPM_P2
2023/11/23 00:03:55;;;;;;;;;;;4.10;99.90;;;;;;6658633;89;20182;-79
2023/11/23 00:13:55;;;;;;;;;;;4.20;99.90;;;;;;6665513;89;20144;-80
2023/11/23 00:23:56;;;;;;;;;;;4.30;99.90;;;;;;6660036;89;20220;-79
2023/11/23 00:33:56;;;;;;;;;;;4.40;99.90;;;;;;6663126;89;20057;-79
2023/11/23 00:43:57;;;;;;;;;;;4.30;99.90;;;;;;6658904;89;20061;-80
2023/11/23 00:53:57;;;;;;;;;;;4.50;99.90;;;;;;6655793;89;20145;-79
2023/11/23 01:03:58;;;;;;;;;;;4.60;99.90;;;;;;6660094;89;20144;-80
2023/11/23 01:13:58;;;;;;;;;;;4.70;99.90;;;;;;6666600;89;20078;-80
2023/11/23 01:23:59;;;;;;;;;;;4.80;99.90;;;;;;6658907;89;20126;-80
2023/11/23 01:33:59;;;;;;;;;;;4.90;99.90;;;;;;6668145;89;20076;-81
2023/11/23 01:44:00;;;;;;;;;;;5.00;99.90;;;;;;6653832;89;20163;-81
2023/11/23 01:54:00;;;;;;;;;;;5.10;99.90;;;;;;6659189;89;20053;-79
2023/11/23 02:04:01;;;;;;;;;;;5.30;99.90;;;;;;6667255;89;20133;-79
2023/11/23 02:14:03;;;;;;;;;;;5.50;99.90;;;;;;6668970;89;20073;-80
2023/11/23 02:24:06;;;;;;;;;;;5.70;99.90;;;;;;6663794;89;20053;-79
2023/11/23 02:34:06;;;;;;;;;;;5.60;99.90;;;;;;6659271;89;20068;-80
2023/11/23 02:44:08;;;;;;;;;;;5.90;99.90;;;;;;6666766;89;20499;-79
2023/11/23 02:54:08;;;;;;;;;;;5.90;99.90;;;;;;6666539;89;20181;-79
2023/11/23 03:04:09;;;;;;;;;;;5.70;99.90;;;;;;6654913;89;20050;-80
2023/11/23 03:14:09;;;;;;;;;;;5.70;99.90;;;;;;6667889;89;20052;-79
2023/11/23 03:24:10;;;;;;;;;;;5.90;99.90;;;;;;6667305;89;20067;-79
2023/11/23 03:34:10;;;;;;;;;;;6.00;99.90;;;;;;6658149;89;20078;-80
2023/11/23 03:44:11;;;;;;;;;;;6.00;99.90;;;;;;6651471;89;20055;-78
2023/11/23 03:54:12;;;;;;;;;;;6.00;99.90;;;;;;6670663;89;20113;-79
2023/11/23 04:04:12;;;;;;;;;;;6.00;99.90;;;;;;6667825;89;20096;-79
2023/11/23 04:14:13;;;;;;;;;;;6.10;99.90;;;;;;6666063;89;20842;-80
2023/11/23 04:24:13;;;;;;;;;;;6.20;99.90;;;;;;6660872;89;20201;-80
2023/11/23 04:34:14;;;;;;;;;;;6.30;99.90;;;;;;6668625;89;20091;-79
2023/11/23 04:44:15;;;;;;;;;;;6.30;99.90;;;;;;6650798;89;20071;-78
2023/11/23 04:54:16;;;;;;;;;;;6.60;99.90;;;;;;6665228;89;20052;-78
2023/11/23 05:04:16;;;;;;;;;;;6.50;99.90;;;;;;6664471;89;20682;-78
2023/11/23 05:14:17;;;;;;;;;;;6.60;99.90;;;;;;6674761;89;20192;-78
2023/11/23 05:24:17;;;;;;;;;;;7.20;99.90;;;;;;6666324;89;20075;-78
2023/11/23 05:34:17;;;;;;;;;;;7.60;99.90;;;;;;6670942;89;20080;-78
2023/11/23 05:44:19;;;;;;;;;;;7.90;99.90;;;;;;6671515;89;20067;-79
2023/11/23 05:54:20;;;;;;;;;;;8.30;99.90;;;;;;6646858;89;20130;-79
2023/11/23 06:04:20;;;;;;;;;;;8.20;99.90;;;;;;6664843;89;20077;-79
2023/11/23 06:14:21;;;;;;;;;;;8.40;99.90;;;;;;6681546;89;20058;-80
2023/11/23 06:24:22;;;;;;;;;;;8.30;99.90;;;;;;6667221;89;20095;-80
2023/11/23 06:34:23;;;;;;;;;;;8.50;99.90;;;;;;6662425;89;20063;-80
2023/11/23 06:44:25;;;;;;;;;;;8.60;99.90;;;;;;6664511;89;20085;-82
2023/11/23 06:54:25;;;;;;;;;;;8.50;99.90;;;;;;6671067;89;20066;-78
2023/11/23 07:04:26;;;;;;;;;;;8.70;99.90;;;;;;6660319;89;20084;-79
2023/11/23 07:14:26;;;;;;;;;;;8.60;99.90;;;;;;6667220;89;20053;-78
2023/11/23 07:24:27;;;;;;;;;;;8.60;99.90;;;;;;6659895;89;20485;-80
2023/11/23 07:34:28;;;;;;;;;;;8.80;99.90;;;;;;6662528;89;20048;-80
2023/11/23 07:44:28;;;;;;;;;;;8.90;99.90;;;;;;6660772;89;20134;-81
2023/11/23 07:54:29;;;;;;;;;;;8.90;99.90;;;;;;6662120;89;20072;-81
2023/11/23 08:04:29;;;;;;;;;;;9.00;99.90;;;;;;6660063;89;20363;-81
2023/11/23 08:14:30;;;;;;;;;;;9.00;99.90;;;;;;6657175;89;20656;-81
2023/11/23 08:24:32;;;;;;;;;;;9.20;99.90;;;;;;6659751;89;20057;-81
2023/11/23 08:34:32;;;;;;;;;;;9.40;99.90;;;;;;6659871;89;20076;-81
2023/11/23 08:44:33;;;;;;;;;;;9.50;99.90;;;;;;6660469;89;20134;-79
2023/11/23 08:54:34;;;;;;;;;;;9.70;99.90;;;;;;6664764;89;20076;-80
2023/11/23 09:04:36;;;;;;;;;;;9.70;99.90;;;;;;6659689;89;20082;-81
2023/11/23 09:14:36;;;;;;;;;;;10.00;99.90;;;;;;6658858;89;20083;-81
2023/11/23 09:24:37;;;;;;;;;;;10.10;99.90;;;;;;6658815;89;20072;-80
2023/11/23 09:34:40;;;;;;;;;;;10.30;99.90;;;;;;6659037;89;20068;-80
2023/11/23 09:44:41;;;;;;;;;;;10.50;99.90;;;;;;6655047;89;20073;-80
2023/11/23 09:54:42;;;;;;;;;;;10.50;99.90;;;;;;6662302;89;20069;-80
2023/11/23 10:04:42;;;;;;;;;;;10.50;99.90;;;;;;6661086;89;20109;-80
2023/11/23 10:14:43;;;;;;;;;;;10.70;99.90;;;;;;6662747;89;20110;-80
2023/11/23 10:24:48;;;;;;;;;;;10.70;99.90;;;;;;6663081;89;20092;-82
2023/11/23 10:34:48;;;;;;;;;;;10.90;99.90;;;;;;6666814;89;20098;-80
2023/11/23 10:44:49;;;;;;;;;;;11.10;99.90;;;;;;6661647;89;20060;-80
2023/11/23 10:54:50;;;;;;;;;;;11.20;99.90;;;;;;6660545;89;20057;-79
2023/11/23 11:04:50;;;;;;;;;;;11.30;99.90;;;;;;6660025;89;20241;-80
2023/11/23 11:14:52;;;;;;;;;;;11.40;99.90;;;;;;6659394;89;20052;-80
2023/11/23 11:25:00;;;;;;;;;;;11.40;99.90;;;;;;6642688;89;20073;-80
2023/11/23 11:35:02;;;;;;;;;;;11.50;99.90;;;;;;6645872;89;20558;-80
2023/11/23 11:45:08;;;;;;;;;;;11.50;99.90;;;;;;6661782;89;20188;-81
2023/11/23 11:55:09;;;;;;;;;;;11.60;99.90;;;;;;6661912;89;20611;-80
2023/11/23 12:05:09;;;;;;;;;;;11.70;99.90;;;;;;6656772;89;20107;-80
2023/11/23 12:15:14;;;;;;;;;;;11.60;99.90;;;;;;6666667;89;20068;-80
2023/11/23 12:25:18;;;;;;;;;;;11.70;99.90;;;;;;6644401;89;20654;-80
2023/11/23 12:35:18;;;;;;;;;;;11.70;99.90;;;;;;6643581;89;20108;-80
2023/11/23 12:45:19;;;;;;;;;;;11.80;99.90;;;;;;6640146;89;20069;-80
2023/11/23 12:55:20;;;;;;;;;;;11.70;99.90;;;;;;6643301;89;20567;-80
2023/11/23 13:05:22;;;;;;;;;;;11.70;99.90;;;;;;6643354;89;20049;-80
2023/11/23 13:15:23;;;;;;;;;;;11.70;99.90;;;;;;6644236;89;20105;-81
2023/11/23 13:25:24;;;;;;;;;;;11.60;99.90;;;;;;6644063;89;20524;-80
2023/11/23 13:35:26;;;;;;;;;;;11.60;99.90;;;;;;6645413;89;20071;-80
2023/11/23 13:45:27;;;;;;;;;;;11.60;99.90;;;;;;6647487;89;20058;-82
2023/11/23 13:55:28;;;;;;;;;;;11.70;99.90;;;;;;6648963;89;20073;-82
2023/11/23 14:05:29;;;;;;;;;;;11.60;99.90;;;;;;6645892;89;20062;-81
2023/11/23 14:15:29;;;;;;;;;;;11.60;99.90;;;;;;6649167;89;20076;-82
2023/11/23 14:25:30;;;;;;;;;;;11.70;99.90;;;;;;6646270;89;20081;-81
2023/11/23 14:35:31;;;;;;;;;;;11.70;99.90;;;;;;6644300;89;20069;-82
2023/11/23 14:45:32;;;;;;;;;;;11.70;99.90;;;;;;6647676;89;20083;-80
2023/11/23 14:55:32;;;;;;;;;;;11.70;99.90;;;;;;6645725;89;20058;-80
2023/11/23 15:05:32;;;;;;;;;;;11.60;99.90;;;;;;6644672;89;20065;-81
2023/11/23 15:15:33;;;;;;;;;;;11.70;99.90;;;;;;6644298;89;20054;-79
2023/11/23 15:25:35;;;;;;;;;;;11.60;99.90;;;;;;6675621;89;20080;-83
2023/11/23 15:35:40;;;;;;;;;;;11.60;99.90;;;;;;6678718;89;20074;-79
2023/11/23 15:45:42;;;;;;;;;;;11.60;99.90;;;;;;6658191;89;20654;-80
2023/11/23 15:55:42;;;;;;;;;;;11.70;99.90;;;;;;6640124;89;20081;-79
2023/11/23 16:05:44;;;;;;;;;;;11.80;99.90;;;;;;6637343;89;20062;-81
2023/11/23 16:15:45;;;;;;;;;;;11.90;99.90;;;;;;6639691;89;20670;-81
2023/11/23 16:25:45;;;;;;;;;;;11.80;99.90;;;;;;6640922;89;20065;-81
2023/11/23 16:35:47;;;;;;;;;;;11.90;99.90;;;;;;6647212;89;20117;-79
2023/11/23 16:45:47;;;;;;;;;;;11.80;99.90;;;;;;6641373;89;20066;-78
2023/11/23 16:55:48;;;;;;;;;;;11.90;99.90;;;;;;6639244;89;20053;-80
2023/11/23 17:05:51;;;;;;;;;;;11.90;99.90;;;;;;6646767;89;20075;-79
2023/11/23 17:15:51;;;;;;;;;;;12.00;99.90;;;;;;6656130;89;20134;-79
2023/11/23 17:25:52;;;;;;;;;;;12.00;99.90;;;;;;6640763;89;20062;-78
2023/11/23 17:35:54;;;;;;;;;;;11.90;99.90;;;;;;6637944;89;20170;-79
2023/11/23 17:45:54;;;;;;;;;;;12.00;99.90;;;;;;6676344;89;20125;-79
2023/11/23 17:55:55;;;;;;;;;;;12.10;99.90;;;;;;6673557;89;20070;-80
2023/11/23 18:05:55;;;;;;;;;;;12.20;99.90;;;;;;6664533;89;20077;-79
2023/11/23 18:15:55;;;;;;;;;;;12.10;99.90;;;;;;6660097;89;20299;-77
2023/11/23 18:25:56;;;;;;;;;;;12.10;99.90;;;;;;6651334;89;20706;-76
2023/11/23 18:35:56;;;;;;;;;;;12.10;99.90;;;;;;6656138;89;20053;-77
2023/11/23 18:45:57;;;;;;;;;;;12.00;99.90;;;;;;6656584;89;20071;-78
2023/11/23 18:55:57;;;;;;;;;;;12.00;99.90;;;;;;6633223;89;20073;-78
2023/11/23 19:17:03;;;;;;;;;;;12.00;99.90;;;;;;6689047;89;20063;-81
2023/11/23 19:27:04;;;;;;;;;;;11.90;99.90;;;;;;6686545;89;20057;-81
2023/11/23 19:45:26;;;;;;;;;;;11.70;99.90;;;;;;6791327;87;20112;-80
2023/11/23 19:55:27;;;;;;;;;;;11.50;99.90;;;;;;6769674;87;20083;-79
2023/11/23 20:05:27;;;;;;;;;;;11.50;99.90;;;;;;6774587;87;20062;-79
2023/11/23 20:15:28;;;;;;;;;;;11.50;99.90;;;;;;6769352;87;20057;-78
2023/11/23 20:25:28;;;;;;;;;;;11.40;99.90;;;;;;6768395;87;20584;-80
2023/11/23 20:35:29;;;;;;;;;;;11.40;99.90;;;;;;6770468;87;20057;-78
2023/11/23 20:45:29;;;;;;;;;;;11.40;99.90;;;;;;6776625;87;20066;-79
2023/11/23 20:55:30;;;;;;;;;;;11.50;99.90;;;;;;6759114;87;20226;-79
2023/11/23 21:05:31;;;;;;;;;;;11.40;99.90;;;;;;6759981;87;20122;-78
2023/11/23 21:15:32;;;;;;;;;;;11.40;99.90;;;;;;6759446;87;20070;-78
2023/11/23 21:25:33;;;;;;;;;;;11.40;99.90;;;;;;6757533;87;20105;-78
2023/11/23 21:35:34;;;;;;;;;;;11.50;99.90;;;;;;6756429;88;20116;-79
2023/11/23 21:45:36;;;;;;;;;;;11.40;99.90;;;;;;6760989;88;20210;-80
2023/11/23 21:55:37;;;;;;;;;;;11.40;99.90;;;;;;6759929;87;20138;-79
2023/11/23 22:05:37;;;;;;;;;;;11.40;99.90;;;;;;6756559;87;20241;-78
2023/11/23 22:15:38;;;;;;;;;;;11.30;99.90;;;;;;6758375;88;20075;-78
2023/11/23 22:25:41;;;;;;;;;;;11.40;99.90;;;;;;6767448;87;20058;-78
2023/11/23 22:35:42;;;;;;;;;;;11.40;99.90;;;;;;6756550;87;20071;-78
2023/11/23 22:45:42;;;;;;;;;;;11.50;99.90;;;;;;6769436;87;20053;-78
2023/11/23 22:55:43;;;;;;;;;;;11.50;99.90;;;;;;6757423;87;20062;-79
2023/11/23 23:05:44;;;;;;;;;;;11.50;99.90;;;;;;6755878;87;20067;-78
2023/11/23 23:15:45;;;;;;;;;;;11.40;99.90;;;;;;6741920;88;20168;-78
2023/11/23 23:25:48;;;;;;;;;;;11.30;99.90;;;;;;6750962;88;20930;-79
2023/11/23 23:35:49;;;;;;;;;;;11.30;99.90;;;;;;6751248;87;20304;-79
2023/11/23 23:45:49;;;;;;;;;;;11.30;99.90;;;;;;6750702;88;20053;-79
2023/11/23 23:55:50;;;;;;;;;;;11.30;99.90;;;;;;6754444;88;20537;-78
